Time;durP1;ratioP1;P1;durP2;ratioP2;P2;SDS_P1;SDS_P2;PMS_P1;PMS_P2;Temp;Humidity;BMP_temperature;BMP_pressure;BME280_temperature;BME280_humidity;BME280_pressure;Samples;Min_cycle;Max_cycle;Signal;HPM_P1;HPM_P2
2023/08/12 00:00:19;;;;;;;3.15;2.10;;;21.40;99.90;;;;;;5072840;28;20024;-37
2023/08/12 00:02:45;;;;;;;2.67;2.00;;;21.40;99.90;;;;;;5072698;28;20020;-37
2023/08/12 00:05:11;;;;;;;3.15;2.33;;;21.40;99.90;;;;;;5072619;28;20103;-39
2023/08/12 00:07:38;;;;;;;4.50;1.80;;;21.40;99.90;;;;;;5072686;28;20020;-40
2023/08/12 00:10:04;;;;;;;2.20;2.00;;;21.40;99.90;;;;;;5072826;28;20025;-39
2023/08/12 00:12:32;;;;;;;3.65;2.17;;;21.40;99.90;;;;;;5072539;28;20028;-38
2023/08/12 00:14:58;;;;;;;2.95;2.30;;;21.40;99.90;;;;;;5072397;28;20029;-41
2023/08/12 00:17:24;;;;;;;2.30;2.05;;;21.40;99.90;;;;;;5072266;28;20102;-42
2023/08/12 00:19:50;;;;;;;2.60;2.00;;;21.30;99.90;;;;;;5072055;28;20060;-39
2023/08/12 00:22:15;;;;;;;2.50;2.00;;;21.40;99.90;;;;;;5072354;28;20028;-39
2023/08/12 00:24:41;;;;;;;3.40;2.10;;;21.30;99.90;;;;;;5072223;28;20021;-39
2023/08/12 00:27:08;;;;;;;3.08;2.20;;;21.40;99.90;;;;;;5072252;28;20025;-38
2023/08/12 00:29:34;;;;;;;2.30;2.00;;;21.40;99.90;;;;;;5071972;28;20078;-40
2023/08/12 00:32:00;;;;;;;2.45;2.03;;;21.40;99.90;;;;;;5072143;28;20449;-39
2023/08/12 00:34:26;;;;;;;2.63;2.13;;;21.30;99.90;;;;;;5071971;28;20124;-41
2023/08/12 00:36:51;;;;;;;2.30;1.90;;;21.40;99.90;;;;;;5072066;28;20028;-43
2023/08/12 00:39:17;;;;;;;2.50;2.22;;;21.30;99.90;;;;;;5071836;28;20032;-41
2023/08/12 00:41:43;;;;;;;2.28;1.90;;;21.40;99.90;;;;;;5072067;28;20099;-39
2023/08/12 00:44:08;;;;;;;3.38;2.13;;;21.40;99.90;;;;;;5072222;28;20031;-39
2023/08/12 00:46:36;;;;;;;2.38;1.90;;;21.40;99.90;;;;;;5071891;28;20020;-36
2023/08/12 00:49:02;;;;;;;2.15;1.95;;;21.30;99.90;;;;;;5071629;28;20032;-43
2023/08/12 00:51:28;;;;;;;2.20;1.70;;;21.30;99.90;;;;;;5071855;28;20063;-40
2023/08/12 00:53:54;;;;;;;2.55;2.10;;;21.30;99.90;;;;;;5071725;28;20448;-40
2023/08/12 00:56:21;;;;;;;2.42;2.10;;;21.30;99.90;;;;;;5071057;28;20131;-44
2023/08/12 00:58:47;;;;;;;2.95;1.95;;;21.30;99.90;;;;;;5071659;28;20406;-36
2023/08/12 01:01:13;;;;;;;2.65;1.90;;;21.30;99.90;;;;;;5071548;28;20024;-40
2023/08/12 01:03:39;;;;;;;2.53;1.90;;;21.30;99.90;;;;;;5071450;28;20017;-41
2023/08/12 01:06:06;;;;;;;2.90;2.50;;;21.30;99.90;;;;;;5071737;28;20517;-37
2023/08/12 01:08:32;;;;;;;2.67;1.98;;;21.30;99.90;;;;;;5071600;28;20048;-41
2023/08/12 01:11:14;;;;;;;2.60;2.30;;;21.30;99.90;;;;;;5071394;28;20101;-39
2023/08/12 01:13:51;;;;;;;2.88;2.17;;;21.30;99.90;;;;;;5071494;28;20031;-40
2023/08/12 01:16:18;;;;;;;2.30;2.10;;;21.30;99.90;;;;;;5071435;28;20032;-37
2023/08/12 01:18:45;;;;;;;2.70;2.13;;;21.30;99.90;;;;;;5071317;28;20032;-37
2023/08/12 01:21:16;;;;;;;2.35;2.10;;;21.30;99.90;;;;;;5071272;28;20035;-41
2023/08/12 01:23:43;;;;;;;2.90;2.10;;;21.30;99.90;;;;;;5071320;28;20025;-40
2023/08/12 01:26:08;;;;;;;3.33;2.03;;;21.30;99.90;;;;;;5071340;28;20067;-38
2023/08/12 01:28:34;;;;;;;3.13;2.10;;;21.30;99.90;;;;;;5072200;28;20029;-39
2023/08/12 01:31:16;;;;;;;2.58;2.33;;;21.30;99.90;;;;;;5071192;28;20116;-40
2023/08/12 01:34:01;;;;;;;2.65;1.90;;;21.30;99.90;;;;;;5071301;28;20112;-36
2023/08/12 01:36:31;;;;;;;2.88;2.03;;;21.30;99.90;;;;;;5071333;28;20033;-39
2023/08/12 01:38:59;;;;;;;2.20;2.00;;;21.30;99.90;;;;;;5070874;28;20039;-43
2023/08/12 01:41:26;;;;;;;4.22;2.35;;;21.30;99.90;;;;;;5071124;28;20016;-39
2023/08/12 01:43:52;;;;;;;2.15;1.95;;;21.30;99.90;;;;;;5071080;28;20033;-41
2023/08/12 01:46:17;;;;;;;2.10;1.83;;;21.30;99.90;;;;;;5071327;28;20075;-36
2023/08/12 01:48:43;;;;;;;2.30;2.08;;;21.20;99.90;;;;;;5072001;28;20108;-40
2023/08/12 01:51:08;;;;;;;2.67;2.25;;;21.20;99.90;;;;;;5071436;28;20052;-40
2023/08/12 01:53:34;;;;;;;3.75;2.28;;;21.30;99.90;;;;;;5070936;28;20076;-38
2023/08/12 01:56:00;;;;;;;3.08;2.20;;;21.30;99.90;;;;;;5071099;28;20103;-40
2023/08/12 01:58:26;;;;;;;1.85;1.73;;;21.30;99.90;;;;;;5069628;28;20082;-45
2023/08/12 02:00:52;;;;;;;3.88;2.10;;;21.20;99.90;;;;;;5070971;28;20055;-44
2023/08/12 02:03:18;;;;;;;2.42;2.10;;;21.30;99.90;;;;;;5070993;28;20055;-43
2023/08/12 02:05:44;;;;;;;3.90;2.35;;;21.30;99.90;;;;;;5070963;28;20067;-38
2023/08/12 02:08:09;;;;;;;2.38;2.15;;;21.30;99.90;;;;;;5074556;28;20056;-41
2023/08/12 02:10:35;;;;;;;4.55;2.13;;;21.30;99.90;;;;;;5074849;28;20025;-38
2023/08/12 02:13:02;;;;;;;2.40;1.80;;;21.30;99.90;;;;;;5074716;28;20389;-43
2023/08/12 02:15:28;;;;;;;5.20;1.90;;;21.30;99.90;;;;;;5074706;28;20025;-41
2023/08/12 02:17:54;;;;;;;2.17;1.83;;;21.30;99.90;;;;;;5074673;28;20035;-42
2023/08/12 02:20:19;;;;;;;2.05;1.80;;;21.20;99.90;;;;;;5074526;28;20081;-44
2023/08/12 02:22:45;;;;;;;2.53;2.00;;;21.20;99.90;;;;;;5074527;28;20031;-40
2023/08/12 02:25:10;;;;;;;2.53;2.10;;;21.20;99.90;;;;;;5073337;28;20023;-40
2023/08/12 02:27:36;;;;;;;2.30;2.00;;;21.20;99.90;;;;;;5074775;28;20028;-43
2023/08/12 02:30:02;;;;;;;4.38;2.30;;;21.20;99.90;;;;;;5074356;28;20071;-43
2023/08/12 02:32:28;;;;;;;2.42;2.22;;;21.30;99.90;;;;;;5074550;28;20017;-39
2023/08/12 02:34:53;;;;;;;2.70;2.33;;;21.20;99.90;;;;;;5074389;28;20023;-44
2023/08/12 02:37:19;;;;;;;2.53;2.20;;;21.30;99.90;;;;;;5074285;28;20474;-40
2023/08/12 02:39:45;;;;;;;3.17;2.10;;;21.20;99.90;;;;;;5073996;28;20474;-42
2023/08/12 02:42:10;;;;;;;2.10;1.80;;;21.20;99.90;;;;;;5074266;28;20059;-40
2023/08/12 02:44:36;;;;;;;3.20;2.40;;;21.20;99.90;;;;;;5074328;28;20385;-43
2023/08/12 02:47:01;;;;;;;3.40;1.83;;;21.20;99.90;;;;;;5074229;28;20546;-42
2023/08/12 02:49:27;;;;;;;7.72;2.00;;;21.20;99.90;;;;;;5073926;28;20020;-43
2023/08/12 02:51:53;;;;;;;2.67;2.17;;;21.20;99.90;;;;;;5074066;28;20425;-41
2023/08/12 02:54:18;;;;;;;2.65;2.38;;;21.20;99.90;;;;;;5073993;28;20029;-39
2023/08/12 02:56:44;;;;;;;2.08;1.88;;;21.20;99.90;;;;;;5073966;28;20495;-43
2023/08/12 02:59:10;;;;;;;2.45;2.20;;;21.20;99.90;;;;;;5073729;28;20115;-41
2023/08/12 03:01:35;;;;;;;2.85;2.28;;;21.20;99.90;;;;;;5074339;28;20025;-47
2023/08/12 03:04:01;;;;;;;2.15;1.95;;;21.20;99.90;;;;;;5073756;28;20159;-41
2023/08/12 03:06:26;;;;;;;2.42;2.05;;;21.20;99.90;;;;;;5073790;28;20107;-45
2023/08/12 03:08:52;;;;;;;3.42;2.10;;;21.20;99.90;;;;;;5073960;28;20032;-41
2023/08/12 03:11:19;;;;;;;1.92;1.65;;;21.20;99.90;;;;;;5073694;28;20066;-40
2023/08/12 03:13:45;;;;;;;2.30;1.83;;;21.20;99.90;;;;;;5073690;28;20537;-38
2023/08/12 03:16:14;;;;;;;2.28;2.05;;;21.20;99.90;;;;;;5073607;28;20139;-44
2023/08/12 03:18:40;;;;;;;2.97;2.10;;;21.20;99.90;;;;;;5073508;28;20025;-43
2023/08/12 03:21:09;;;;;;;3.00;2.15;;;21.20;99.90;;;;;;5073359;28;20020;-36
2023/08/12 03:23:36;;;;;;;2.88;2.38;;;21.20;99.90;;;;;;5073599;28;20095;-40
2023/08/12 03:26:02;;;;;;;2.70;2.13;;;21.20;99.90;;;;;;5073524;28;20104;-40
2023/08/12 03:28:28;;;;;;;2.10;1.90;;;21.20;99.90;;;;;;5073434;28;20554;-41
2023/08/12 03:30:54;;;;;;;2.63;2.00;;;21.20;99.90;;;;;;5073369;28;20033;-36
2023/08/12 03:33:20;;;;;;;2.30;2.10;;;21.20;99.90;;;;;;5073335;28;20359;-39
2023/08/12 03:35:46;;;;;;;2.42;2.13;;;21.20;99.90;;;;;;5073332;28;20037;-40
2023/08/12 03:38:12;;;;;;;2.78;2.30;;;21.20;99.90;;;;;;5073506;28;20504;-41
2023/08/12 03:40:39;;;;;;;2.10;1.90;;;21.20;99.90;;;;;;5073013;28;20017;-38
2023/08/12 03:43:05;;;;;;;2.72;2.15;;;21.20;99.90;;;;;;5073114;28;20024;-41
2023/08/12 03:45:30;;;;;;;2.55;2.10;;;21.20;99.90;;;;;;5073708;28;20562;-39
2023/08/12 03:47:56;;;;;;;2.78;2.08;;;21.20;99.90;;;;;;5074503;28;20024;-37
2023/08/12 03:50:22;;;;;;;3.33;2.17;;;21.20;99.90;;;;;;5072807;28;20027;-40
2023/08/12 03:52:47;;;;;;;2.53;2.10;;;21.20;99.90;;;;;;5072928;28;20094;-37
2023/08/12 03:55:13;;;;;;;2.25;1.90;;;21.20;99.90;;;;;;5072957;28;20037;-39
2023/08/12 03:57:39;;;;;;;2.80;2.20;;;21.20;99.90;;;;;;5073081;28;20048;-39
2023/08/12 04:00:07;;;;;;;2.40;2.00;;;21.20;99.90;;;;;;5072669;28;20017;-37
2023/08/12 04:02:32;;;;;;;3.20;2.40;;;21.20;99.90;;;;;;5072822;28;20032;-39
2023/08/12 04:04:58;;;;;;;2.05;1.77;;;21.20;99.90;;;;;;5072594;28;20108;-40
2023/08/12 04:07:24;;;;;;;2.13;1.88;;;21.20;99.90;;;;;;5072703;28;20031;-38
2023/08/12 04:09:50;;;;;;;2.10;1.90;;;21.20;99.90;;;;;;5072414;28;20481;-38
2023/08/12 04:12:15;;;;;;;2.20;1.80;;;21.20;99.90;;;;;;5072639;28;20048;-37
2023/08/12 04:14:41;;;;;;;2.17;1.90;;;21.20;99.90;;;;;;5072543;28;20036;-40
2023/08/12 04:17:07;;;;;;;2.13;1.80;;;21.20;99.90;;;;;;5072367;28;20063;-39
2023/08/12 04:19:32;;;;;;;2.60;1.98;;;21.20;99.90;;;;;;5072143;28;20029;-42
2023/08/12 04:21:58;;;;;;;3.25;1.77;;;21.20;99.90;;;;;;5072367;28;20429;-41
2023/08/12 04:24:23;;;;;;;4.88;1.88;;;21.20;99.90;;;;;;5072280;28;20034;-38
2023/08/12 04:26:49;;;;;;;2.30;2.00;;;21.20;99.90;;;;;;5072340;28;20016;-37
2023/08/12 04:29:14;;;;;;;2.42;2.00;;;21.20;99.90;;;;;;5071973;28;20031;-37
2023/08/12 04:31:41;;;;;;;2.17;1.95;;;21.20;99.90;;;;;;5072249;28;20390;-39
2023/08/12 04:34:06;;;;;;;2.45;2.08;;;21.20;99.90;;;;;;5072018;28;20040;-41
2023/08/12 04:36:32;;;;;;;2.25;1.80;;;21.20;99.90;;;;;;5070836;28;20044;-40
2023/08/12 04:38:57;;;;;;;2.75;2.00;;;21.20;99.90;;;;;;5071796;28;20398;-40
2023/08/12 04:41:26;;;;;;;3.75;2.15;;;21.20;99.90;;;;;;5072153;28;20017;-40
2023/08/12 04:43:51;;;;;;;2.92;2.10;;;21.20;99.90;;;;;;5072042;28;20024;-37
2023/08/12 04:46:17;;;;;;;3.05;2.17;;;21.20;99.90;;;;;;5071805;28;20029;-37
2023/08/12 04:48:43;;;;;;;2.35;2.10;;;21.20;99.90;;;;;;5071834;28;20064;-39
2023/08/12 04:51:10;;;;;;;3.00;2.20;;;21.20;99.90;;;;;;5071806;28;20055;-39
2023/08/12 04:53:35;;;;;;;2.47;1.80;;;21.20;99.90;;;;;;5071942;28;20029;-41
2023/08/12 04:56:01;;;;;;;3.90;2.20;;;21.20;99.90;;;;;;5071783;28;20020;-40
2023/08/12 04:58:27;;;;;;;2.53;2.00;;;21.20;99.90;;;;;;5071911;28;20393;-43
2023/08/12 05:00:53;;;;;;;3.20;1.90;;;21.20;99.90;;;;;;5071540;28;20020;-41
2023/08/12 05:03:18;;;;;;;2.80;1.90;;;21.20;99.90;;;;;;5070201;28;20021;-39
2023/08/12 05:05:48;;;;;;;3.05;2.03;;;21.20;99.90;;;;;;5071658;28;20024;-40
2023/08/12 05:08:13;;;;;;;2.60;2.22;;;21.20;99.90;;;;;;5071568;28;20040;-40
2023/08/12 05:10:39;;;;;;;3.38;2.35;;;21.20;99.90;;;;;;5071313;28;20036;-38
2023/08/12 05:13:04;;;;;;;2.95;2.20;;;21.20;99.90;;;;;;5071926;28;20032;-41
2023/08/12 05:15:30;;;;;;;2.53;2.13;;;21.20;99.90;;;;;;5071454;28;20036;-40
2023/08/12 05:17:55;;;;;;;3.08;2.10;;;21.20;99.90;;;;;;5071365;28;20021;-40
2023/08/12 05:20:21;;;;;;;4.38;2.03;;;21.20;99.90;;;;;;5071277;28;20028;-40
2023/08/12 05:22:47;;;;;;;2.20;2.00;;;21.20;99.90;;;;;;5071351;28;20029;-41
2023/08/12 05:25:13;;;;;;;2.42;2.20;;;21.10;99.90;;;;;;5071467;28;20033;-41
2023/08/12 05:27:38;;;;;;;1.98;1.77;;;21.20;99.90;;;;;;5071396;28;20432;-38
2023/08/12 05:30:04;;;;;;;2.20;2.00;;;21.10;99.90;;;;;;5069691;28;20080;-41
2023/08/12 05:32:30;;;;;;;2.38;1.90;;;21.20;99.90;;;;;;5071329;28;20096;-42
2023/08/12 05:34:56;;;;;;;2.85;2.05;;;21.10;99.90;;;;;;5071182;28;20099;-39
2023/08/12 05:37:21;;;;;;;3.63;1.75;;;21.20;99.90;;;;;;5071279;28;20444;-41
2023/08/12 05:39:47;;;;;;;2.20;1.77;;;21.10;99.90;;;;;;5070883;28;20032;-41
2023/08/12 05:42:13;;;;;;;2.97;1.85;;;21.20;99.90;;;;;;5070682;28;20032;-40
2023/08/12 05:44:42;;;;;;;2.28;1.98;;;21.20;99.90;;;;;;5071104;28;20463;-39
2023/08/12 05:47:07;;;;;;;2.50;1.77;;;21.20;99.90;;;;;;5071230;28;20020;-41
2023/08/12 05:49:33;;;;;;;2.50;2.20;;;21.10;99.90;;;;;;5071117;28;20441;-38
2023/08/12 05:51:58;;;;;;;2.05;1.80;;;21.20;99.90;;;;;;5071287;28;20021;-39
2023/08/12 05:54:24;;;;;;;2.25;1.90;;;21.20;99.90;;;;;;5070984;28;20081;-39
2023/08/12 05:56:50;;;;;;;3.15;2.00;;;21.10;99.90;;;;;;5071186;28;20069;-38
2023/08/12 05:59:15;;;;;;;3.72;2.10;;;21.20;99.90;;;;;;5069394;28;20058;-44
2023/08/12 06:01:41;;;;;;;2.47;1.83;;;21.10;99.90;;;;;;5071068;28;20020;-40
2023/08/12 06:04:06;;;;;;;4.30;1.83;;;21.20;99.90;;;;;;5071070;28;20383;-43
2023/08/12 06:06:32;;;;;;;2.88;2.00;;;21.20;99.90;;;;;;5071237;28;20032;-41
2023/08/12 06:08:58;;;;;;;2.17;1.88;;;21.10;99.90;;;;;;5070789;28;20095;-42
2023/08/12 06:11:23;;;;;;;1.77;1.40;;;21.20;99.90;;;;;;5070983;28;20028;-44
2023/08/12 06:13:49;;;;;;;2.13;1.92;;;21.20;99.90;;;;;;5070936;28;20025;-41
2023/08/12 06:16:15;;;;;;;2.45;1.92;;;21.10;99.90;;;;;;5070790;28;20401;-38
2023/08/12 06:18:40;;;;;;;3.30;2.03;;;21.10;99.90;;;;;;5070772;28;20025;-40
2023/08/12 06:21:06;;;;;;;2.53;2.00;;;21.20;99.90;;;;;;5070814;28;20063;-40
2023/08/12 06:23:31;;;;;;;2.67;1.92;;;21.20;99.90;;;;;;5070690;28;20020;-40
2023/08/12 06:25:57;;;;;;;2.70;2.08;;;21.20;99.90;;;;;;5070864;28;20047;-40
2023/08/12 06:28:23;;;;;;;1.92;1.73;;;21.20;99.90;;;;;;5070740;28;20094;-47
2023/08/12 06:30:48;;;;;;;3.25;1.90;;;21.20;99.90;;;;;;5070546;28;20029;-41
2023/08/12 06:33:14;;;;;;;2.13;1.77;;;21.20;99.90;;;;;;5070818;28;20040;-39
2023/08/12 06:35:41;;;;;;;2.13;1.80;;;21.20;99.90;;;;;;5070680;28;20397;-44
2023/08/12 06:38:09;;;;;;;3.50;1.80;;;21.20;99.90;;;;;;5070942;28;20048;-44
2023/08/12 06:40:35;;;;;;;2.00;1.70;;;21.10;99.90;;;;;;5070442;28;20016;-40
2023/08/12 06:43:01;;;;;;;2.03;1.80;;;21.20;99.90;;;;;;5070535;28;20028;-43
2023/08/12 06:45:26;;;;;;;2.85;2.20;;;21.20;99.90;;;;;;5070609;28;20020;-43
2023/08/12 06:47:52;;;;;;;1.83;1.70;;;21.20;99.90;;;;;;5070578;28;20033;-39
2023/08/12 06:50:17;;;;;;;1.98;1.60;;;21.20;99.90;;;;;;5070373;28;20098;-40
2023/08/12 06:52:43;;;;;;;2.55;1.70;;;21.10;99.90;;;;;;5070456;28;20027;-40
2023/08/12 06:55:09;;;;;;;2.17;1.80;;;21.10;99.90;;;;;;5073889;28;20035;-43
2023/08/12 06:57:34;;;;;;;2.47;1.92;;;21.20;99.90;;;;;;5073920;28;20104;-43
2023/08/12 07:00:00;;;;;;;1.88;1.65;;;21.20;99.90;;;;;;5073710;28;20028;-38
2023/08/12 07:02:26;;;;;;;1.80;1.50;;;21.20;99.90;;;;;;5074009;28;20393;-41
2023/08/12 07:04:51;;;;;;;2.58;1.92;;;21.20;99.90;;;;;;5073899;28;20498;-37
2023/08/12 07:07:17;;;;;;;2.72;1.98;;;21.20;99.90;;;;;;5074202;28;20024;-40
2023/08/12 07:09:42;;;;;;;1.95;1.75;;;21.20;99.90;;;;;;5073654;28;20032;-41
2023/08/12 07:12:08;;;;;;;1.92;1.77;;;21.20;99.90;;;;;;5073763;28;20024;-44
2023/08/12 07:14:34;;;;;;;2.35;2.00;;;21.20;99.90;;;;;;5073712;28;20027;-47
2023/08/12 07:16:59;;;;;;;3.05;2.03;;;21.20;99.90;;;;;;5075017;28;20116;-41
2023/08/12 07:19:25;;;;;;;2.08;1.70;;;21.20;99.90;;;;;;5073602;28;20055;-43
2023/08/12 07:21:50;;;;;;;2.08;1.63;;;21.20;99.90;;;;;;5074218;28;20484;-41
2023/08/12 07:24:16;;;;;;;2.58;1.80;;;21.20;99.90;;;;;;5073535;28;20350;-39
2023/08/12 07:26:42;;;;;;;2.05;1.60;;;21.20;99.90;;;;;;5073599;28;20096;-40
2023/08/12 07:29:08;;;;;;;3.22;1.80;;;21.20;99.90;;;;;;5073855;28;20077;-37
2023/08/12 07:31:33;;;;;;;2.53;1.73;;;21.20;99.90;;;;;;5073498;28;20020;-39
2023/08/12 07:33:59;;;;;;;2.22;1.90;;;21.20;99.90;;;;;;5073307;28;20108;-40
2023/08/12 07:36:24;;;;;;;2.35;1.75;;;21.20;99.90;;;;;;5073338;28;20440;-41
2023/08/12 07:38:50;;;;;;;2.30;1.95;;;21.20;99.90;;;;;;5073122;28;20534;-37
2023/08/12 07:41:16;;;;;;;1.70;1.50;;;21.20;99.90;;;;;;5073198;28;20024;-39
2023/08/12 07:43:41;;;;;;;2.33;1.60;;;21.20;99.90;;;;;;5073145;28;20474;-40
2023/08/12 07:46:07;;;;;;;2.33;1.85;;;21.20;99.90;;;;;;5073201;28;20016;-41
2023/08/12 07:48:32;;;;;;;2.38;1.83;;;21.20;99.90;;;;;;5073331;28;20068;-38
2023/08/12 07:50:59;;;;;;;2.15;1.80;;;21.20;99.90;;;;;;5072939;28;20394;-38
2023/08/12 07:53:25;;;;;;;2.55;2.10;;;21.20;99.90;;;;;;5072921;28;20129;-40
2023/08/12 07:55:51;;;;;;;2.42;1.80;;;21.20;99.90;;;;;;5072949;28;20108;-39
2023/08/12 07:58:17;;;;;;;1.98;1.70;;;21.20;99.90;;;;;;5072775;28;20123;-41
2023/08/12 08:00:42;;;;;;;1.90;1.60;;;21.20;99.90;;;;;;5072778;28;20102;-40
2023/08/12 08:03:08;;;;;;;2.05;1.77;;;21.20;99.90;;;;;;5072760;28;20038;-41
2023/08/12 08:05:34;;;;;;;1.70;1.60;;;21.20;99.90;;;;;;5072688;28;20440;-40
2023/08/12 08:07:59;;;;;;;2.00;1.75;;;21.20;99.90;;;;;;5072801;28;20111;-39
2023/08/12 08:10:25;;;;;;;2.88;2.00;;;21.20;99.90;;;;;;5072456;28;20016;-39
2023/08/12 08:12:50;;;;;;;2.40;1.90;;;21.20;99.90;;;;;;5072450;28;20024;-42
2023/08/12 08:15:16;;;;;;;2.00;1.58;;;21.20;99.90;;;;;;5072452;28;20478;-37
2023/08/12 08:17:42;;;;;;;2.10;1.80;;;21.20;99.90;;;;;;5072545;28;20028;-39
2023/08/12 08:20:08;;;;;;;2.08;1.73;;;21.30;99.90;;;;;;5070957;28;20021;-41
2023/08/12 08:22:33;;;;;;;1.90;1.50;;;21.20;99.90;;;;;;5072428;28;20031;-39
2023/08/12 08:24:59;;;;;;;2.53;1.90;;;21.20;99.90;;;;;;5072299;28;20025;-39
2023/08/12 08:27:25;;;;;;;2.47;2.00;;;21.20;99.90;;;;;;5072342;28;20035;-42
2023/08/12 08:29:51;;;;;;;2.85;1.90;;;21.20;99.90;;;;;;5072169;28;20024;-39
2023/08/12 08:32:16;;;;;;;1.90;1.70;;;21.30;99.90;;;;;;5072301;28;20025;-40
2023/08/12 08:34:42;;;;;;;2.08;1.75;;;21.30;99.90;;;;;;5072100;28;20134;-40
2023/08/12 08:37:08;;;;;;;2.25;2.00;;;21.30;99.90;;;;;;5072257;28;20115;-43
2023/08/12 08:39:34;;;;;;;2.38;1.73;;;21.30;99.90;;;;;;5071822;28;20107;-40
2023/08/12 08:42:00;;;;;;;1.90;1.70;;;21.30;99.90;;;;;;5072020;28;20417;-40
2023/08/12 08:44:31;;;;;;;3.97;1.60;;;21.30;99.90;;;;;;5072125;28;20029;-40
2023/08/12 08:46:59;;;;;;;1.80;1.70;;;21.30;99.90;;;;;;5072245;28;20029;-40
2023/08/12 08:49:25;;;;;;;2.00;1.80;;;21.30;99.90;;;;;;5071794;28;20030;-38
2023/08/12 08:51:52;;;;;;;1.83;1.55;;;21.30;99.90;;;;;;5071921;28;20103;-38
2023/08/12 08:54:19;;;;;;;1.90;1.60;;;21.30;99.90;;;;;;5071671;28;20096;-41
2023/08/12 08:56:45;;;;;;;3.38;1.92;;;21.30;99.90;;;;;;5071801;28;20442;-43
2023/08/12 08:59:11;;;;;;;3.83;1.90;;;21.30;99.90;;;;;;5071455;28;20033;-40
2023/08/12 09:01:37;;;;;;;1.70;1.48;;;21.30;99.90;;;;;;5071827;28;20098;-41
2023/08/12 09:04:05;;;;;;;2.40;1.83;;;21.30;99.90;;;;;;5071490;28;20035;-41
2023/08/12 09:06:33;;;;;;;2.15;1.73;;;21.40;99.90;;;;;;5071679;28;20469;-36
2023/08/12 09:09:01;;;;;;;2.17;1.80;;;21.40;99.90;;;;;;5071331;28;20034;-42
2023/08/12 09:11:26;;;;;;;2.67;1.90;;;21.30;99.90;;;;;;5071724;28;20020;-39
2023/08/12 09:13:52;;;;;;;2.47;1.80;;;21.30;99.90;;;;;;5071841;28;20078;-39
2023/08/12 09:16:18;;;;;;;4.15;1.83;;;21.40;99.90;;;;;;5070622;28;20033;-39
2023/08/12 09:18:44;;;;;;;2.80;1.83;;;21.40;99.90;;;;;;5071231;28;20032;-41
2023/08/12 09:21:10;;;;;;;2.05;1.83;;;21.30;99.90;;;;;;5072190;28;20032;-41
2023/08/12 09:23:38;;;;;;;3.78;1.88;;;21.40;99.90;;;;;;5071678;28;20108;-40
2023/08/12 09:26:15;;;;;;;1.83;1.63;;;21.40;99.90;;;;;;5071386;28;20032;-39
2023/08/12 09:28:41;;;;;;;2.28;1.88;;;21.40;99.90;;;;;;5071292;28;20025;-40
2023/08/12 09:31:07;;;;;;;2.33;1.70;;;21.40;99.90;;;;;;5071241;28;20044;-47
2023/08/12 09:33:39;;;;;;;1.90;1.60;;;21.40;99.90;;;;;;5071185;28;20482;-44
2023/08/12 09:36:04;;;;;;;3.60;1.70;;;21.40;99.90;;;;;;5071194;28;20036;-41
2023/08/12 09:38:31;;;;;;;5.38;2.10;;;21.40;99.90;;;;;;5071122;28;20031;-41
2023/08/12 09:40:57;;;;;;;1.95;1.48;;;21.40;99.90;;;;;;5071215;28;20020;-43
2023/08/12 09:43:28;;;;;;;4.90;1.92;;;21.40;99.90;;;;;;5071428;28;20095;-41
2023/08/12 09:45:57;;;;;;;1.90;1.70;;;21.40;99.90;;;;;;5071246;28;20020;-43
2023/08/12 09:48:23;;;;;;;2.95;1.85;;;21.40;99.90;;;;;;5071160;28;20035;-41
2023/08/12 09:50:50;;;;;;;2.30;1.73;;;21.40;99.90;;;;;;5070953;28;20103;-44
2023/08/12 09:53:15;;;;;;;3.22;1.88;;;21.40;99.90;;;;;;5071245;28;20098;-43
2023/08/12 09:55:43;;;;;;;2.53;2.00;;;21.40;99.90;;;;;;5071404;28;20052;-41
2023/08/12 09:58:10;;;;;;;2.30;2.10;;;21.30;99.90;;;;;;5071096;28;20473;-41
2023/08/12 10:00:35;;;;;;;2.58;1.80;;;21.30;99.90;;;;;;5070872;28;20107;-42
2023/08/12 10:03:03;;;;;;;2.00;1.80;;;21.40;99.90;;;;;;5070840;28;20435;-40
2023/08/12 10:05:32;;;;;;;2.22;1.90;;;21.40;99.90;;;;;;5070987;28;20043;-41
2023/08/12 10:07:58;;;;;;;2.50;2.00;;;21.40;99.90;;;;;;5070981;28;20035;-42
2023/08/12 10:10:25;;;;;;;3.70;2.10;;;21.40;99.90;;;;;;5070732;28;20020;-41
2023/08/12 10:12:51;;;;;;;2.13;1.92;;;21.30;99.90;;;;;;5070858;28;20043;-43
2023/08/12 10:15:17;;;;;;;2.08;1.77;;;21.30;99.90;;;;;;5070872;28;20094;-47
2023/08/12 10:17:43;;;;;;;2.65;2.00;;;21.40;99.90;;;;;;5070683;28;20112;-42
2023/08/12 10:20:13;;;;;;;2.10;1.80;;;21.40;99.90;;;;;;5071498;28;20016;-41
2023/08/12 10:22:43;;;;;;;2.30;2.10;;;21.40;99.90;;;;;;5071901;28;20066;-43
2023/08/12 10:25:09;;;;;;;1.90;1.65;;;21.40;99.90;;;;;;5071759;28;20024;-44
2023/08/12 10:27:36;;;;;;;2.20;1.70;;;21.40;99.90;;;;;;5073130;28;20367;-41
2023/08/12 10:30:04;;;;;;;2.38;2.08;;;21.40;99.90;;;;;;5075954;28;20063;-40
2023/08/12 10:32:32;;;;;;;3.22;2.10;;;21.40;99.90;;;;;;5075739;28;20035;-41
2023/08/12 10:34:58;;;;;;;2.95;2.03;;;21.40;99.90;;;;;;5075127;28;20406;-40
2023/08/12 10:37:30;;;;;;;2.20;1.90;;;21.40;99.90;;;;;;5074452;28;20036;-39
2023/08/12 10:39:56;;;;;;;1.98;1.75;;;21.40;99.90;;;;;;5074090;28;20025;-41
2023/08/12 10:42:47;;;;;;;3.88;1.92;;;21.40;99.90;;;;;;5074382;28;20389;-41
2023/08/12 10:45:15;;;;;;;1.85;1.73;;;21.40;99.90;;;;;;5074318;28;20070;-42
2023/08/12 10:47:46;;;;;;;2.05;1.85;;;21.40;99.90;;;;;;5072963;28;20516;-41
2023/08/12 10:50:24;;;;;;;2.35;2.03;;;21.40;99.90;;;;;;5074032;28;20025;-43
2023/08/12 10:52:54;;;;;;;4.00;2.10;;;21.40;99.90;;;;;;5074090;28;20016;-39
2023/08/12 10:55:22;;;;;;;2.78;1.70;;;21.40;99.90;;;;;;5074013;28;20375;-41
2023/08/12 10:57:49;;;;;;;2.08;1.80;;;21.40;99.90;;;;;;5072801;28;20108;-42
2023/08/12 11:00:16;;;;;;;1.90;1.70;;;21.50;99.90;;;;;;5073856;28;20025;-45
2023/08/12 11:02:48;;;;;;;2.47;1.63;;;21.50;99.90;;;;;;5073913;28;20586;-40
2023/08/12 11:05:14;;;;;;;2.80;1.98;;;21.50;99.90;;;;;;5073994;28;20024;-41
2023/08/12 11:07:40;;;;;;;2.33;1.67;;;21.50;99.90;;;;;;5073909;28;20016;-40
2023/08/12 11:10:21;;;;;;;2.00;1.67;;;21.50;99.90;;;;;;5073706;28;20277;-42
2023/08/12 11:12:56;;;;;;;2.08;1.75;;;21.50;99.90;;;;;;5073751;28;20024;-41
2023/08/12 11:15:37;;;;;;;2.08;1.80;;;21.50;99.90;;;;;;5073901;28;20131;-41
2023/08/12 11:18:07;;;;;;;2.08;1.80;;;21.50;99.90;;;;;;5073765;28;20017;-39
2023/08/12 11:20:34;;;;;;;2.08;1.70;;;21.50;99.90;;;;;;5073599;28;20032;-41
2023/08/12 11:23:01;;;;;;;2.70;2.10;;;21.50;99.90;;;;;;5073540;28;20485;-39
2023/08/12 11:25:29;;;;;;;3.42;1.73;;;21.50;99.90;;;;;;5073591;28;20025;-40
2023/08/12 11:27:55;;;;;;;2.92;2.00;;;21.50;99.90;;;;;;5073526;28;20031;-36
2023/08/12 11:30:22;;;;;;;2.85;1.60;;;21.50;99.90;;;;;;5071912;28;20020;-41
2023/08/12 11:32:53;;;;;;;4.10;2.10;;;21.50;99.90;;;;;;5073710;28;20020;-39
2023/08/12 11:35:20;;;;;;;2.83;1.92;;;21.50;99.90;;;;;;5073474;28;20020;-41
2023/08/12 11:37:48;;;;;;;3.08;1.92;;;21.50;99.90;;;;;;5073371;28;20087;-40
2023/08/12 11:40:16;;;;;;;2.78;1.80;;;21.50;99.90;;;;;;5072315;28;20021;-38
2023/08/12 11:42:44;;;;;;;3.17;2.03;;;21.50;99.90;;;;;;5073136;28;20042;-40
2023/08/12 11:45:10;;;;;;;2.17;1.58;;;21.60;99.90;;;;;;5073075;28;20041;-40
2023/08/12 11:47:37;;;;;;;3.10;2.13;;;21.60;99.90;;;;;;5073176;28;20021;-39
2023/08/12 11:50:08;;;;;;;9.30;2.50;;;21.60;99.90;;;;;;5072953;28;20025;-41
2023/08/12 11:52:34;;;;;;;9.93;3.05;;;21.80;99.90;;;;;;5073517;28;20035;-42
2023/08/12 11:55:00;;;;;;;7.22;2.92;;;22.00;99.90;;;;;;5073191;28;20033;-43
2023/08/12 11:57:29;;;;;;;5.90;3.13;;;22.00;99.90;;;;;;5071940;28;20355;-43
2023/08/12 12:00:08;;;;;;;5.10;2.90;;;22.10;99.90;;;;;;5072490;28;20047;-41
2023/08/12 12:02:55;;;;;;;7.50;3.20;;;22.20;99.90;;;;;;5072988;28;20025;-41
2023/08/12 12:05:30;;;;;;;7.35;3.28;;;22.20;99.90;;;;;;5072880;28;20020;-41
2023/08/12 12:07:56;;;;;;;12.43;3.10;;;22.20;99.90;;;;;;5072816;28;20025;-43
2023/08/12 12:10:31;;;;;;;6.18;3.33;;;22.20;99.90;;;;;;5072495;28;20029;-46
2023/08/12 12:12:57;;;;;;;4.68;3.30;;;22.10;99.90;;;;;;5072627;28;20032;-45
2023/08/12 12:15:22;;;;;;;7.65;3.00;;;22.10;99.90;;;;;;5072716;28;20064;-42
2023/08/12 12:17:49;;;;;;;8.40;3.47;;;22.10;99.90;;;;;;5072609;28;20020;-40
2023/08/12 12:20:15;;;;;;;5.00;3.33;;;22.10;99.90;;;;;;5072349;28;20127;-42
2023/08/12 12:22:45;;;;;;;6.32;3.22;;;22.10;99.90;;;;;;5072242;28;20103;-43
2023/08/12 12:25:16;;;;;;;7.40;2.78;;;22.10;99.90;;;;;;5072420;28;20174;-43
2023/08/12 12:27:43;;;;;;;5.07;2.40;;;22.00;99.90;;;;;;5071166;28;20024;-43
2023/08/12 12:30:10;;;;;;;6.25;2.47;;;22.00;99.90;;;;;;5072097;28;20032;-40
2023/08/12 12:32:37;;;;;;;8.68;2.55;;;22.00;99.90;;;;;;5072174;28;20036;-39
2023/08/12 12:35:03;;;;;;;5.18;2.15;;;22.00;99.90;;;;;;5072069;28;20025;-42
2023/08/12 12:37:30;;;;;;;10.52;2.85;;;21.90;99.90;;;;;;5070833;28;20071;-38
2023/08/12 12:39:56;;;;;;;7.80;2.40;;;21.90;99.90;;;;;;5071825;28;20049;-39
2023/08/12 12:42:21;;;;;;;5.72;2.55;;;21.90;99.90;;;;;;5072117;28;20017;-39
2023/08/12 12:44:47;;;;;;;9.98;2.60;;;21.90;99.90;;;;;;5071874;28;20474;-40